South Reno (Wolf Run), Nevada Weather observations

Data are for observation ending at time listed.
 Day   Time    Ave.   Ave.  Ave.  Vector   Max.   Stn.    Total    Solar   Ave.  
  of    of     Air    Rel.  Wind   Wind    Wind   Baro.  Precip.   Rad.    Soil  
Year   Day     Temp.  Hum.  Speed  Dir.    Gust   Pres.                    Temp. 
2016   (PST)    F      %     mph   deg.    mph     mb.     in.     W/m2     F   
------------------------------------------------------------------------------
 343   12:10   48.7    60    7.5   146     14.1  99999.0    0.01     147    37.8
 343   12:20   48.7    62    9.2   155     21.7  99999.0    0.00     139    37.8
 343   12:30   49.5    60   11.0   145     19.6  99999.0    0.00     167    37.8
 343   12:40   49.4    62   11.0   150     17.4  99999.0    0.00     124    37.8
 343   12:50   49.4    62   11.8   145     19.5  99999.0    0.00     142    37.8
 343   13:00   50.2    58   11.7   144     18.9  99999.0    0.00      93    37.8
 343   13:10   50.2    59   10.4   140     18.6  99999.0    0.00     124    37.8
 343   13:20   50.6    58   10.2   144     16.2  99999.0    0.00     123    37.8
 343   13:30   50.9    58   11.8   143     20.6  99999.0    0.00     189    37.9
 343   13:40   52.2    55   11.5   134     20.3  99999.0    0.00     379    37.9
 343   13:50   53.8    49   12.5   133     21.5  99999.0    0.00     453    37.9
 343   14:00   54.3    48   11.7   134     21.3  99999.0    0.00     438    37.9
 343   14:10   53.8    49   12.2   132     20.8  99999.0    0.00     306    38.0
 343   14:20   53.7    48   11.5   137     23.8  99999.0    0.00     316    38.0
 343   14:30   53.7    50   13.9   134     23.2  99999.0    0.00     403    38.1
 343   14:40   53.7    50   11.9   138     20.9  99999.0    0.00     385    38.2
 343   14:50   53.3    50   12.0   138     18.3  99999.0    0.00     303    38.2
 343   15:00   53.7    49   11.8   142     23.9  99999.0    0.00     317    38.3
 343   15:10   53.4    49   11.6   140     16.7  99999.0    0.00     299    38.4
 343   15:20   53.2    51   10.8   137     18.9  99999.0    0.00     256    38.4
 343   15:30   53.0    48   10.4   134     15.3  99999.0    0.00     203    38.5
 343   15:40   53.6    44    6.6   147     11.0  99999.0    0.00     166    38.6
 343   15:50   52.1    47   10.4   136     15.6  99999.0    0.00      63    38.7
 343   16:00   51.9    47    7.8   142     16.7  99999.0    0.00      59    38.7
 343   16:10   51.2    52    9.0   143     17.2  99999.0    0.00      42    38.8
 343   16:20   51.1    53    8.5   145     15.1  99999.0    0.00      25    38.9
 343   16:30   50.8    54    8.4   150     21.3  99999.0    0.00      14    38.9
 343   16:40   50.6    55   11.4   140     18.3  99999.0    0.00       5    39.0
 343   16:50   50.4    56   10.9   142     18.4  99999.0    0.00       1    39.0
 343   17:00   50.3    56    9.9   140     17.0  99999.0    0.00       0    39.1
 343   17:10   50.5    56   11.9   139     20.5  99999.0    0.00       0    39.1
 343   17:20   50.8    54   10.3   142     16.4  99999.0    0.00       0    39.2
 343   17:30   50.6    54   11.5   138     18.5  99999.0    0.00       0    39.2
 343   17:40   50.9    50   10.0   144     15.3  99999.0    0.00       0    39.2
 343   17:50   51.0    50   11.2   135     18.0  99999.0    0.00       0    39.3
 343   18:00   50.5    55   11.5   141     17.2  99999.0    0.00       0    39.3
 343   18:10   50.4    56   10.5   140     19.4  99999.0    0.00       0    39.3
 343   18:20   50.5    54   11.6   134     23.0  99999.0    0.00       0    39.3
 343   18:30   50.0    56   10.7   149     15.9  99999.0    0.00       0    39.4
 343   18:40   50.1    54   11.2   153     16.2  99999.0    0.00       0    39.4
 343   18:50   50.0    52   10.3   157     16.5  99999.0    0.00       0    39.4
 343   19:00   50.1    51   11.8   146     20.6  99999.0    0.00       0    39.4
 343   19:10   49.8    52   11.0   148     17.8  99999.0    0.00       0    39.5
 343   19:20   49.6    54   11.2   147     18.0  99999.0    0.00       0    39.5
 343   19:30   49.7    51   11.3   149     21.5  99999.0    0.00       0    39.5
 343   19:40   49.8    51   10.1   148     15.5  99999.0    0.00       0    39.5
 343   19:50   49.4    53    8.9   159     14.1  99999.0    0.00       0    39.5
 343   20:00   49.6    52    9.5   157     16.7  99999.0    0.00       0    39.5
 343   20:10   50.3    48    8.9   153     17.0  99999.0    0.00       0    39.6
 343   20:20   49.7    52    9.5   156     16.8  99999.0    0.00       0    39.6
 343   20:30   49.6    52    8.5   154     13.4  99999.0    0.00       0    39.6
 343   20:40   49.9    51    8.8   151     14.3  99999.0    0.00       0    39.6
 343   20:50   50.0    49    8.3   168     14.4  99999.0    0.00       0    39.6
 343   21:00   49.9    51    8.2   158     15.9  99999.0    0.00       0    39.6
 343   21:10   49.7    54    8.2   170     15.3  99999.0    0.00       0    39.6
 343   21:20   50.2    52    8.2   163     13.2  99999.0    0.00       0    39.7
 343   21:30   49.9    52    7.8   164     13.2  99999.0    0.00       0    39.7
 343   21:40   49.5    52    7.6   166     12.2  99999.0    0.00       0    39.7
 343   21:50   49.7    50    8.5   181     14.5  99999.0    0.00       0    39.7
 343   22:00   49.6    50    8.4   175     13.5  99999.0    0.00       0    39.7
 343   22:10   49.9    49    7.8   171     13.0  99999.0    0.00       0    39.7
 343   22:20   49.8    50    8.1   173     13.3  99999.0    0.00       0    39.7
 343   22:30   49.7    50    8.2   171     13.7  99999.0    0.00       0    39.8
 343   22:40   49.4    50    8.0   171     11.8  99999.0    0.00       0    39.8
 343   22:50   49.5    50    8.4   175     12.9  99999.0    0.00       0    39.8
 343   23:00   49.4    49    8.4   178     14.4  99999.0    0.00       0    39.8
 343   23:10   49.3    50    8.9   185     15.9  99999.0    0.00       0    39.8
 343   23:20   49.2    50    7.6   177     13.2  99999.0    0.00       0    39.8
 343   23:30   49.4    50    9.1   182     15.1  99999.0    0.00       0    39.8
 343   23:40   49.0    53    8.1   183     15.6  99999.0    0.00       0    39.9
 343   23:50   49.0    53    9.0   193     15.2  99999.0    0.00       0    39.9
 344    0:00   49.3    51    9.9   195     16.0  99999.0    0.00       0    39.9
 344    0:10   49.3    50    7.8   181     13.5  99999.0    0.00       0    39.9
 344    0:20   49.4    51    8.7   180     16.2  99999.0    0.00       0    39.9
 344    0:30   49.4    52    9.4   200     15.6  99999.0    0.00       0    39.9
 344    0:40   49.4    52    8.2   192     13.4  99999.0    0.00       0    39.9
 344    0:50   49.2    51    7.3   185     11.8  99999.0    0.00       0    39.9
 344    1:00   49.2    52    8.0   185     14.0  99999.0    0.00       0    39.9
 344    1:10   49.7    51    8.8   178     16.3  99999.0    0.00       0    39.9
 344    1:20   49.5    53    8.8   176     14.1  99999.0    0.00       0    39.9
 344    1:30   49.8    53   10.2   174     15.4  99999.0    0.00       0    39.9
 344    1:40   49.8    53    8.9   182     13.7  99999.0    0.00       0    39.9
 344    1:50   50.0    51    8.2   173     13.2  99999.0    0.00       0    39.9
 344    2:00   50.1    51    8.6   178     15.6  99999.0    0.00       0    39.9
 344    2:10   49.7    53    8.6   187     13.0  99999.0    0.00       0    40.0
 344    2:20   49.5    54    9.9   184     17.0  99999.0    0.00       0    40.0
 344    2:30   49.5    53   12.4   182     19.1  99999.0    0.00       0    40.0
 344    2:40   49.6    51   10.8   184     18.3  99999.0    0.00       0    40.0
 344    2:50   49.7    50   10.9   171     16.9  99999.0    0.00       0    40.0
 344    3:00   50.0    49   11.2   174     19.1  99999.0    0.00       0    40.0
 344    3:10   50.1    49    9.7   169     15.6  99999.0    0.00       0    40.0
 344    3:20   50.3    49    9.0   165     16.2  99999.0    0.00       0    40.0
 344    3:30   50.0    51   10.0   174     15.1  99999.0    0.00       0    40.0
 344    3:40   49.9    52   10.8   174     18.0  99999.0    0.00       0    40.1
 344    3:50   50.3    50   10.0   169     14.9  99999.0    0.00       0    40.1
 344    4:00   50.2    51    8.3   159     14.5  99999.0    0.00       0    40.1
 344    4:10   50.2    53    9.1   188     15.3  99999.0    0.00       0    40.1
 344    4:20   50.5    51    9.8   175     15.8  99999.0    0.00       0    40.1
 344    4:30   50.5    52   10.3   168     16.0  99999.0    0.00       0    40.1
 344    4:40   50.3    54    9.4   164     14.7  99999.0    0.00       0    40.1
 344    4:50   50.4    54   10.1   168     15.9  99999.0    0.00       0    40.1
 344    5:00   50.4    53    8.2   171     13.3  99999.0    0.00       0    40.1
 344    5:10   50.5    53    9.2   158     14.2  99999.0    0.00       0    40.2
 344    5:20   50.2    56    9.2   173     16.6  99999.0    0.00       0    40.2
 344    5:30   50.5    54    7.9   165     13.3  99999.0    0.00       0    40.2
 344    5:40   50.9    52    8.9   156     14.8  99999.0    0.00       0    40.2
 344    5:50   50.3    53    9.5   154     14.9  99999.0    0.00       0    40.2
 344    6:00   50.4    51    8.7   160     15.6  99999.0    0.00       0    40.2
 344    6:10   50.7    50   10.0   156     15.1  99999.0    0.00       0    40.2
 344    6:20   50.4    53   10.6   168     16.6  99999.0    0.00       0    40.3
 344    6:30   50.8    52    8.7   164     16.3  99999.0    0.00       0    40.3
 344    6:40   50.8    51    9.9   148     15.8  99999.0    0.00       0    40.3
 344    6:50   50.5    53   10.0   171     17.3  99999.0    0.00       0    40.3
 344    7:00   50.9    50    7.9   168     12.6  99999.0    0.00       0    40.3
 344    7:10   50.6    51    9.1   174     14.2  99999.0    0.00       1    40.3
 344    7:20   50.4    50   10.2   161     16.8  99999.0    0.00       3    40.4
 344    7:30   50.2    49    9.1   161     15.6  99999.0    0.00       5    40.4
 344    7:40   50.3    50    9.2   172     16.1  99999.0    0.00       9    40.4
 344    7:50   50.2    52    9.2   162     15.4  99999.0    0.00      14    40.4
 344    8:00   50.3    52    8.5   168     16.5  99999.0    0.00      37    40.4
 344    8:10   51.1    50    6.8   174     11.8  99999.0    0.00     125    40.4
 344    8:20   51.1    49    8.5   196     16.8  99999.0    0.00     117    40.5
 344    8:30   51.4    49    7.4   196     11.8  99999.0    0.00     205    40.5
 344    8:40   52.0    48    8.2   183     14.4  99999.0    0.00     231    40.5
 344    8:50   52.1    49    8.6   201     15.1  99999.0    0.00     256    40.5
 344    9:00   51.9    48    9.2   199     15.9  99999.0    0.00     272    40.5
 344    9:10   52.4    46    7.3   200     15.3  99999.0    0.00     294    40.5
 344    9:20   52.5    45    8.3   198     15.6  99999.0    0.00     317    40.5
 344    9:30   52.6    47    8.5   202     13.3  99999.0    0.00     339    40.5
 344    9:40   52.9    46    8.0   206     13.5  99999.0    0.00     373    40.6
 344    9:50   53.3    43    7.8   207     11.8  99999.0    0.00     417    40.6
 344   10:00   53.4    44    7.6   202     14.1  99999.0    0.00     431    40.6
 344   10:10   53.9    42    9.0   211     15.8  99999.0    0.00     432    40.6
 344   10:20   54.4    43    8.7   210     18.4  99999.0    0.00     463    40.7
 344   10:30   54.4    44    9.4   207     18.5  99999.0    0.00     527    40.7
 344   10:40   54.6    44    7.6   208     13.6  99999.0    0.00     517    40.8
 344   10:50   54.6    44    8.6   202     13.4  99999.0    0.00     469    40.8
 344   11:00   54.4    44   10.2   200     16.5  99999.0    0.00     470    40.9
 344   11:10   54.2    46    9.8   207     16.2  99999.0    0.00     475    40.9
 344   11:20   54.0    44   10.8   204     16.0  99999.0    0.00     483    41.0
 344   11:30   54.2    43   10.1   195     17.7  99999.0    0.00     484    41.0
 344   11:40   54.0    43   10.5   201     16.9  99999.0    0.00     494    41.1
 344   11:50   53.8    43   10.9   200     16.5  99999.0    0.00     515    41.1
 344   12:00   53.7    42    9.3   188     14.7  99999.0    0.00     380    41.2

Return to South Reno, Nevada graphs page.


Western Regional Climate Center,wrcc@dri.edu